sensor_id;sensor_type;location;lat;lon;timestamp;P1;durP1;ratioP1;P2;durP2;ratioP2
357;SDS011;167;47.558;7.602;2023-02-28T00:00:50;2.13;;;2.03;;
357;SDS011;167;47.558;7.602;2023-02-28T00:03:16;3.33;;;2.70;;
357;SDS011;167;47.558;7.602;2023-02-28T00:05:43;2.72;;;2.63;;
357;SDS011;167;47.558;7.602;2023-02-28T00:08:09;3.00;;;2.90;;
357;SDS011;167;47.558;7.602;2023-02-28T00:10:35;5.43;;;3.05;;
357;SDS011;167;47.558;7.602;2023-02-28T00:13:02;2.55;;;2.45;;
357;SDS011;167;47.558;7.602;2023-02-28T00:15:29;1.90;;;1.80;;
357;SDS011;167;47.558;7.602;2023-02-28T00:17:55;2.83;;;2.72;;
357;SDS011;167;47.558;7.602;2023-02-28T00:20:21;2.43;;;2.33;;
357;SDS011;167;47.558;7.602;2023-02-28T00:22:49;2.22;;;2.13;;
357;SDS011;167;47.558;7.602;2023-02-28T00:25:17;3.05;;;2.85;;
357;SDS011;167;47.558;7.602;2023-02-28T00:27:43;2.40;;;2.30;;
357;SDS011;167;47.558;7.602;2023-02-28T00:30:14;3.40;;;3.10;;
357;SDS011;167;47.558;7.602;2023-02-28T00:32:40;2.53;;;2.43;;
357;SDS011;167;47.558;7.602;2023-02-28T00:35:06;2.80;;;2.63;;
357;SDS011;167;47.558;7.602;2023-02-28T00:37:33;2.63;;;2.43;;
357;SDS011;167;47.558;7.602;2023-02-28T00:39:59;3.30;;;3.00;;
357;SDS011;167;47.558;7.602;2023-02-28T00:42:25;4.00;;;3.23;;
357;SDS011;167;47.558;7.602;2023-02-28T00:44:51;2.13;;;2.00;;
357;SDS011;167;47.558;7.602;2023-02-28T00:47:17;3.17;;;2.97;;
357;SDS011;167;47.558;7.602;2023-02-28T00:49:43;4.27;;;3.17;;
357;SDS011;167;47.558;7.602;2023-02-28T00:52:09;2.58;;;2.47;;
357;SDS011;167;47.558;7.602;2023-02-28T00:54:35;2.50;;;2.40;;
357;SDS011;167;47.558;7.602;2023-02-28T00:57:01;2.83;;;2.70;;
357;SDS011;167;47.558;7.602;2023-02-28T00:59:27;2.60;;;2.43;;
357;SDS011;167;47.558;7.602;2023-02-28T01:01:53;3.30;;;3.00;;
357;SDS011;167;47.558;7.602;2023-02-28T01:04:19;3.47;;;3.27;;
357;SDS011;167;47.558;7.602;2023-02-28T01:06:45;2.53;;;2.40;;
357;SDS011;167;47.558;7.602;2023-02-28T01:09:11;3.13;;;2.87;;
357;SDS011;167;47.558;7.602;2023-02-28T01:11:37;3.00;;;2.80;;
357;SDS011;167;47.558;7.602;2023-02-28T01:14:05;2.73;;;2.57;;
357;SDS011;167;47.558;7.602;2023-02-28T01:16:31;2.83;;;2.72;;
357;SDS011;167;47.558;7.602;2023-02-28T01:18:57;2.50;;;2.30;;
357;SDS011;167;47.558;7.602;2023-02-28T01:21:24;5.17;;;3.33;;
357;SDS011;167;47.558;7.602;2023-02-28T01:23:50;3.33;;;3.03;;
357;SDS011;167;47.558;7.602;2023-02-28T01:26:20;2.50;;;2.40;;
357;SDS011;167;47.558;7.602;2023-02-28T01:28:47;2.40;;;2.30;;
357;SDS011;167;47.558;7.602;2023-02-28T01:31:13;2.73;;;2.53;;
357;SDS011;167;47.558;7.602;2023-02-28T01:33:40;3.70;;;3.40;;
357;SDS011;167;47.558;7.602;2023-02-28T01:36:10;3.23;;;2.93;;
357;SDS011;167;47.558;7.602;2023-02-28T01:38:37;2.83;;;2.63;;
357;SDS011;167;47.558;7.602;2023-02-28T01:41:03;3.40;;;3.20;;
357;SDS011;167;47.558;7.602;2023-02-28T01:46:18;2.80;;;2.70;;
357;SDS011;167;47.558;7.602;2023-02-28T01:51:13;3.77;;;3.17;;
357;SDS011;167;47.558;7.602;2023-02-28T01:53:42;2.50;;;2.40;;
357;SDS011;167;47.558;7.602;2023-02-28T01:56:10;3.60;;;2.90;;
357;SDS011;167;47.558;7.602;2023-02-28T01:58:36;3.53;;;3.13;;
357;SDS011;167;47.558;7.602;2023-02-28T02:01:02;2.93;;;2.83;;
357;SDS011;167;47.558;7.602;2023-02-28T02:03:29;3.63;;;2.60;;
357;SDS011;167;47.558;7.602;2023-02-28T02:05:56;3.00;;;2.90;;
357;SDS011;167;47.558;7.602;2023-02-28T02:08:25;3.20;;;3.00;;
357;SDS011;167;47.558;7.602;2023-02-28T02:10:52;3.40;;;3.10;;
357;SDS011;167;47.558;7.602;2023-02-28T02:16:02;3.20;;;3.00;;
357;SDS011;167;47.558;7.602;2023-02-28T02:18:50;2.70;;;2.40;;
357;SDS011;167;47.558;7.602;2023-02-28T02:26:27;3.17;;;2.97;;
357;SDS011;167;47.558;7.602;2023-02-28T02:31:53;3.47;;;3.27;;
357;SDS011;167;47.558;7.602;2023-02-28T02:34:26;3.27;;;3.00;;
357;SDS011;167;47.558;7.602;2023-02-28T02:39:30;3.63;;;3.00;;
357;SDS011;167;47.558;7.602;2023-02-28T02:41:58;3.60;;;3.40;;
357;SDS011;167;47.558;7.602;2023-02-28T02:44:30;3.20;;;3.00;;
357;SDS011;167;47.558;7.602;2023-02-28T02:47:06;3.83;;;3.50;;
357;SDS011;167;47.558;7.602;2023-02-28T02:49:34;3.10;;;2.80;;
357;SDS011;167;47.558;7.602;2023-02-28T02:52:06;3.10;;;2.90;;
357;SDS011;167;47.558;7.602;2023-02-28T02:54:34;3.40;;;3.20;;
357;SDS011;167;47.558;7.602;2023-02-28T02:57:05;2.97;;;2.77;;
357;SDS011;167;47.558;7.602;2023-02-28T02:59:33;3.45;;;3.25;;
357;SDS011;167;47.558;7.602;2023-02-28T03:02:01;2.33;;;2.23;;
357;SDS011;167;47.558;7.602;2023-02-28T03:04:31;3.38;;;3.15;;
357;SDS011;167;47.558;7.602;2023-02-28T03:06:58;3.80;;;3.50;;
357;SDS011;167;47.558;7.602;2023-02-28T03:09:24;4.00;;;3.37;;
357;SDS011;167;47.558;7.602;2023-02-28T03:11:51;3.27;;;3.07;;
357;SDS011;167;47.558;7.602;2023-02-28T03:14:33;3.10;;;2.90;;
357;SDS011;167;47.558;7.602;2023-02-28T03:17:13;3.60;;;3.40;;
357;SDS011;167;47.558;7.602;2023-02-28T03:27:29;2.93;;;2.73;;
357;SDS011;167;47.558;7.602;2023-02-28T03:30:00;3.23;;;3.03;;
357;SDS011;167;47.558;7.602;2023-02-28T03:32:33;3.63;;;3.37;;
357;SDS011;167;47.558;7.602;2023-02-28T03:35:02;4.00;;;3.70;;
357;SDS011;167;47.558;7.602;2023-02-28T03:37:31;3.90;;;3.60;;
357;SDS011;167;47.558;7.602;2023-02-28T03:40:02;4.23;;;3.93;;
357;SDS011;167;47.558;7.602;2023-02-28T03:42:31;4.10;;;3.90;;
357;SDS011;167;47.558;7.602;2023-02-28T03:47:49;3.20;;;3.00;;
357;SDS011;167;47.558;7.602;2023-02-28T03:50:29;2.30;;;2.20;;
357;SDS011;167;47.558;7.602;2023-02-28T03:53:16;2.73;;;2.63;;
357;SDS011;167;47.558;7.602;2023-02-28T03:55:45;3.30;;;3.10;;
357;SDS011;167;47.558;7.602;2023-02-28T03:58:15;3.15;;;2.90;;
357;SDS011;167;47.558;7.602;2023-02-28T04:00:50;2.90;;;2.80;;
357;SDS011;167;47.558;7.602;2023-02-28T04:03:18;2.80;;;2.70;;
357;SDS011;167;47.558;7.602;2023-02-28T04:05:51;3.60;;;3.37;;
357;SDS011;167;47.558;7.602;2023-02-28T04:08:17;3.37;;;3.17;;
357;SDS011;167;47.558;7.602;2023-02-28T04:10:44;3.60;;;3.40;;
357;SDS011;167;47.558;7.602;2023-02-28T04:13:11;4.40;;;4.10;;
357;SDS011;167;47.558;7.602;2023-02-28T04:15:36;3.57;;;3.27;;
357;SDS011;167;47.558;7.602;2023-02-28T04:18:02;3.80;;;3.60;;
357;SDS011;167;47.558;7.602;2023-02-28T04:20:28;3.37;;;3.17;;
357;SDS011;167;47.558;7.602;2023-02-28T04:22:54;4.60;;;4.20;;
357;SDS011;167;47.558;7.602;2023-02-28T04:25:20;3.30;;;3.10;;
357;SDS011;167;47.558;7.602;2023-02-28T04:27:46;2.90;;;2.80;;
357;SDS011;167;47.558;7.602;2023-02-28T04:30:12;3.70;;;3.23;;
357;SDS011;167;47.558;7.602;2023-02-28T04:32:38;4.03;;;3.73;;
357;SDS011;167;47.558;7.602;2023-02-28T04:35:04;4.57;;;4.10;;
357;SDS011;167;47.558;7.602;2023-02-28T04:37:30;3.63;;;3.42;;
357;SDS011;167;47.558;7.602;2023-02-28T04:39:59;3.43;;;3.23;;
357;SDS011;167;47.558;7.602;2023-02-28T04:42:25;3.77;;;3.53;;
357;SDS011;167;47.558;7.602;2023-02-28T04:44:51;3.90;;;3.70;;
357;SDS011;167;47.558;7.602;2023-02-28T04:47:17;3.90;;;3.70;;
357;SDS011;167;47.558;7.602;2023-02-28T04:49:43;4.23;;;3.93;;
357;SDS011;167;47.558;7.602;2023-02-28T04:52:09;3.43;;;3.17;;
357;SDS011;167;47.558;7.602;2023-02-28T04:54:35;4.27;;;3.97;;
357;SDS011;167;47.558;7.602;2023-02-28T04:57:03;3.93;;;3.67;;
357;SDS011;167;47.558;7.602;2023-02-28T04:59:29;3.00;;;2.90;;
357;SDS011;167;47.558;7.602;2023-02-28T05:01:55;3.50;;;3.30;;
357;SDS011;167;47.558;7.602;2023-02-28T05:04:21;3.97;;;3.70;;
357;SDS011;167;47.558;7.602;2023-02-28T05:06:47;3.30;;;3.10;;
357;SDS011;167;47.558;7.602;2023-02-28T05:09:13;4.10;;;3.80;;
357;SDS011;167;47.558;7.602;2023-02-28T05:11:39;3.50;;;3.30;;
357;SDS011;167;47.558;7.602;2023-02-28T05:14:06;4.30;;;4.00;;
357;SDS011;167;47.558;7.602;2023-02-28T05:16:32;4.43;;;4.13;;
357;SDS011;167;47.558;7.602;2023-02-28T05:18:58;4.57;;;4.20;;
357;SDS011;167;47.558;7.602;2023-02-28T05:23:50;6.03;;;5.43;;
357;SDS011;167;47.558;7.602;2023-02-28T05:26:17;4.47;;;4.17;;
357;SDS011;167;47.558;7.602;2023-02-28T05:28:43;4.50;;;4.20;;
357;SDS011;167;47.558;7.602;2023-02-28T05:31:10;4.60;;;4.13;;
357;SDS011;167;47.558;7.602;2023-02-28T05:33:36;4.20;;;3.97;;
357;SDS011;167;47.558;7.602;2023-02-28T05:36:03;3.87;;;3.53;;
357;SDS011;167;47.558;7.602;2023-02-28T05:38:29;4.30;;;4.00;;
357;SDS011;167;47.558;7.602;2023-02-28T05:40:55;5.90;;;4.30;;
357;SDS011;167;47.558;7.602;2023-02-28T05:43:21;7.20;;;4.77;;
357;SDS011;167;47.558;7.602;2023-02-28T05:45:47;4.03;;;3.73;;
357;SDS011;167;47.558;7.602;2023-02-28T05:48:13;3.97;;;3.67;;
357;SDS011;167;47.558;7.602;2023-02-28T05:50:39;4.80;;;4.40;;
357;SDS011;167;47.558;7.602;2023-02-28T05:53:05;4.40;;;4.20;;
357;SDS011;167;47.558;7.602;2023-02-28T05:55:31;5.50;;;5.10;;
357;SDS011;167;47.558;7.602;2023-02-28T05:57:57;4.30;;;4.00;;
357;SDS011;167;47.558;7.602;2023-02-28T06:00:23;4.80;;;4.40;;
357;SDS011;167;47.558;7.602;2023-02-28T06:02:49;4.30;;;4.00;;
357;SDS011;167;47.558;7.602;2023-02-28T06:05:16;4.93;;;4.28;;
357;SDS011;167;47.558;7.602;2023-02-28T06:07:43;5.00;;;4.60;;
357;SDS011;167;47.558;7.602;2023-02-28T06:10:10;4.70;;;4.30;;
357;SDS011;167;47.558;7.602;2023-02-28T06:12:36;6.07;;;4.03;;
357;SDS011;167;47.558;7.602;2023-02-28T06:15:02;5.03;;;4.73;;
357;SDS011;167;47.558;7.602;2023-02-28T06:17:28;4.50;;;4.20;;
357;SDS011;167;47.558;7.602;2023-02-28T06:19:54;3.70;;;3.43;;
357;SDS011;167;47.558;7.602;2023-02-28T06:22:20;4.80;;;4.50;;
357;SDS011;167;47.558;7.602;2023-02-28T06:24:46;4.23;;;3.97;;
357;SDS011;167;47.558;7.602;2023-02-28T06:27:12;4.50;;;4.30;;
357;SDS011;167;47.558;7.602;2023-02-28T06:29:38;3.60;;;3.40;;
357;SDS011;167;47.558;7.602;2023-02-28T06:32:05;7.03;;;3.70;;
357;SDS011;167;47.558;7.602;2023-02-28T06:34:31;4.60;;;4.30;;
357;SDS011;167;47.558;7.602;2023-02-28T06:36:59;4.50;;;4.20;;
357;SDS011;167;47.558;7.602;2023-02-28T06:39:27;4.33;;;4.10;;
357;SDS011;167;47.558;7.602;2023-02-28T06:41:53;4.27;;;3.97;;
357;SDS011;167;47.558;7.602;2023-02-28T06:44:19;7.05;;;5.13;;
357;SDS011;167;47.558;7.602;2023-02-28T06:46:45;4.10;;;3.80;;
357;SDS011;167;47.558;7.602;2023-02-28T06:49:11;5.23;;;4.73;;
357;SDS011;167;47.558;7.602;2023-02-28T06:51:38;5.70;;;4.03;;
357;SDS011;167;47.558;7.602;2023-02-28T06:54:05;4.30;;;3.90;;
357;SDS011;167;47.558;7.602;2023-02-28T06:56:33;4.53;;;4.23;;
357;SDS011;167;47.558;7.602;2023-02-28T06:59:00;4.30;;;4.10;;
357;SDS011;167;47.558;7.602;2023-02-28T07:01:26;4.97;;;4.57;;
357;SDS011;167;47.558;7.602;2023-02-28T07:03:53;4.97;;;4.57;;
357;SDS011;167;47.558;7.602;2023-02-28T07:06:19;4.40;;;4.10;;
357;SDS011;167;47.558;7.602;2023-02-28T07:08:47;4.63;;;4.10;;
357;SDS011;167;47.558;7.602;2023-02-28T07:11:13;5.77;;;4.50;;
357;SDS011;167;47.558;7.602;2023-02-28T07:13:39;4.70;;;4.40;;
357;SDS011;167;47.558;7.602;2023-02-28T07:16:06;4.20;;;3.80;;
357;SDS011;167;47.558;7.602;2023-02-28T07:18:34;4.90;;;4.50;;
357;SDS011;167;47.558;7.602;2023-02-28T07:21:03;5.27;;;4.87;;
357;SDS011;167;47.558;7.602;2023-02-28T07:23:29;4.13;;;3.83;;
357;SDS011;167;47.558;7.602;2023-02-28T07:25:55;4.43;;;4.00;;
357;SDS011;167;47.558;7.602;2023-02-28T07:28:21;4.63;;;4.43;;
357;SDS011;167;47.558;7.602;2023-02-28T07:30:48;4.05;;;3.75;;
357;SDS011;167;47.558;7.602;2023-02-28T07:33:14;5.03;;;4.63;;
357;SDS011;167;47.558;7.602;2023-02-28T07:35:40;5.15;;;4.65;;
357;SDS011;167;47.558;7.602;2023-02-28T07:38:06;5.03;;;4.73;;
357;SDS011;167;47.558;7.602;2023-02-28T07:40:33;3.33;;;3.13;;
357;SDS011;167;47.558;7.602;2023-02-28T07:42:59;5.07;;;4.77;;
357;SDS011;167;47.558;7.602;2023-02-28T07:45:26;3.90;;;3.63;;
357;SDS011;167;47.558;7.602;2023-02-28T07:47:53;4.50;;;4.20;;
357;SDS011;167;47.558;7.602;2023-02-28T07:50:19;4.47;;;4.27;;
357;SDS011;167;47.558;7.602;2023-02-28T07:52:45;4.10;;;3.80;;
357;SDS011;167;47.558;7.602;2023-02-28T07:55:12;4.68;;;4.28;;
357;SDS011;167;47.558;7.602;2023-02-28T07:57:38;4.60;;;4.20;;
357;SDS011;167;47.558;7.602;2023-02-28T08:00:05;4.30;;;4.00;;
357;SDS011;167;47.558;7.602;2023-02-28T08:02:31;3.87;;;3.63;;
357;SDS011;167;47.558;7.602;2023-02-28T08:04:57;4.13;;;3.87;;
357;SDS011;167;47.558;7.602;2023-02-28T08:07:23;4.43;;;3.73;;
357;SDS011;167;47.558;7.602;2023-02-28T08:09:49;4.40;;;4.10;;
357;SDS011;167;47.558;7.602;2023-02-28T08:12:15;5.00;;;4.60;;
357;SDS011;167;47.558;7.602;2023-02-28T08:14:41;5.07;;;4.67;;
357;SDS011;167;47.558;7.602;2023-02-28T08:17:07;5.10;;;4.40;;
357;SDS011;167;47.558;7.602;2023-02-28T08:19:33;6.07;;;4.37;;
357;SDS011;167;47.558;7.602;2023-02-28T08:21:59;4.20;;;3.97;;
357;SDS011;167;47.558;7.602;2023-02-28T08:24:25;3.92;;;3.63;;
357;SDS011;167;47.558;7.602;2023-02-28T08:26:51;4.23;;;3.97;;
357;SDS011;167;47.558;7.602;2023-02-28T08:29:17;4.97;;;4.60;;
357;SDS011;167;47.558;7.602;2023-02-28T08:31:42;4.50;;;4.20;;
357;SDS011;167;47.558;7.602;2023-02-28T08:34:09;5.00;;;4.60;;
357;SDS011;167;47.558;7.602;2023-02-28T08:36:35;4.40;;;4.10;;
357;SDS011;167;47.558;7.602;2023-02-28T08:39:01;3.73;;;3.53;;
357;SDS011;167;47.558;7.602;2023-02-28T08:41:27;4.30;;;4.00;;
357;SDS011;167;47.558;7.602;2023-02-28T08:43:53;4.63;;;4.33;;
357;SDS011;167;47.558;7.602;2023-02-28T08:46:20;4.17;;;3.77;;
357;SDS011;167;47.558;7.602;2023-02-28T08:48:46;5.13;;;4.73;;
357;SDS011;167;47.558;7.602;2023-02-28T08:51:15;4.10;;;3.87;;
357;SDS011;167;47.558;7.602;2023-02-28T08:53:46;4.00;;;3.80;;
357;SDS011;167;47.558;7.602;2023-02-28T08:56:14;5.03;;;4.50;;
357;SDS011;167;47.558;7.602;2023-02-28T08:58:41;4.87;;;4.50;;
357;SDS011;167;47.558;7.602;2023-02-28T09:01:08;4.03;;;3.73;;
357;SDS011;167;47.558;7.602;2023-02-28T09:03:34;3.97;;;3.67;;
357;SDS011;167;47.558;7.602;2023-02-28T09:06:00;4.73;;;4.33;;
357;SDS011;167;47.558;7.602;2023-02-28T09:08:28;3.90;;;3.70;;
357;SDS011;167;47.558;7.602;2023-02-28T09:10:55;3.93;;;3.70;;
357;SDS011;167;47.558;7.602;2023-02-28T09:13:22;4.03;;;3.73;;
357;SDS011;167;47.558;7.602;2023-02-28T09:15:49;4.20;;;3.90;;
357;SDS011;167;47.558;7.602;2023-02-28T09:18:15;5.20;;;4.80;;
357;SDS011;167;47.558;7.602;2023-02-28T09:20:41;5.20;;;4.80;;
357;SDS011;167;47.558;7.602;2023-02-28T09:23:08;4.97;;;4.57;;
357;SDS011;167;47.558;7.602;2023-02-28T09:25:34;5.00;;;4.60;;
357;SDS011;167;47.558;7.602;2023-02-28T09:28:00;4.63;;;4.33;;
357;SDS011;167;47.558;7.602;2023-02-28T09:30:26;5.33;;;4.20;;
357;SDS011;167;47.558;7.602;2023-02-28T09:32:52;4.27;;;3.97;;
357;SDS011;167;47.558;7.602;2023-02-28T09:35:19;4.33;;;4.10;;
357;SDS011;167;47.558;7.602;2023-02-28T09:37:46;4.10;;;3.90;;
357;SDS011;167;47.558;7.602;2023-02-28T09:40:12;5.00;;;4.70;;
357;SDS011;167;47.558;7.602;2023-02-28T09:42:39;5.10;;;4.70;;
357;SDS011;167;47.558;7.602;2023-02-28T09:45:06;4.90;;;4.60;;
357;SDS011;167;47.558;7.602;2023-02-28T09:47:37;5.47;;;4.97;;
357;SDS011;167;47.558;7.602;2023-02-28T09:52:49;4.63;;;4.23;;
357;SDS011;167;47.558;7.602;2023-02-28T09:57:41;4.20;;;3.90;;
357;SDS011;167;47.558;7.602;2023-02-28T10:05:14;5.10;;;4.80;;
357;SDS011;167;47.558;7.602;2023-02-28T10:07:46;4.10;;;3.90;;
357;SDS011;167;47.558;7.602;2023-02-28T10:10:21;4.68;;;4.38;;
357;SDS011;167;47.558;7.602;2023-02-28T10:12:48;4.53;;;4.10;;
357;SDS011;167;47.558;7.602;2023-02-28T10:15:16;4.50;;;4.07;;
357;SDS011;167;47.558;7.602;2023-02-28T10:17:43;4.77;;;4.47;;
357;SDS011;167;47.558;7.602;2023-02-28T10:20:14;4.78;;;4.50;;
357;SDS011;167;47.558;7.602;2023-02-28T10:25:19;5.10;;;4.70;;
357;SDS011;167;47.558;7.602;2023-02-28T10:27:45;5.57;;;5.27;;
357;SDS011;167;47.558;7.602;2023-02-28T10:30:11;5.57;;;5.10;;
357;SDS011;167;47.558;7.602;2023-02-28T10:32:38;5.90;;;4.50;;
357;SDS011;167;47.558;7.602;2023-02-28T10:37:37;4.90;;;4.60;;
357;SDS011;167;47.558;7.602;2023-02-28T10:40:04;5.90;;;5.40;;
357;SDS011;167;47.558;7.602;2023-02-28T10:42:30;5.53;;;5.22;;
357;SDS011;167;47.558;7.602;2023-02-28T10:45:10;5.37;;;4.80;;
357;SDS011;167;47.558;7.602;2023-02-28T10:47:39;5.43;;;5.03;;
357;SDS011;167;47.558;7.602;2023-02-28T10:50:08;4.73;;;4.33;;
357;SDS011;167;47.558;7.602;2023-02-28T10:52:52;5.60;;;5.20;;
357;SDS011;167;47.558;7.602;2023-02-28T10:55:23;5.47;;;5.17;;
357;SDS011;167;47.558;7.602;2023-02-28T10:57:53;4.87;;;4.57;;
357;SDS011;167;47.558;7.602;2023-02-28T11:00:20;6.07;;;5.67;;
357;SDS011;167;47.558;7.602;2023-02-28T11:02:47;5.70;;;5.30;;
357;SDS011;167;47.558;7.602;2023-02-28T11:05:27;6.53;;;5.13;;
357;SDS011;167;47.558;7.602;2023-02-28T11:07:54;5.70;;;5.30;;
357;SDS011;167;47.558;7.602;2023-02-28T11:10:21;4.97;;;4.57;;
357;SDS011;167;47.558;7.602;2023-02-28T11:12:49;6.30;;;5.65;;
357;SDS011;167;47.558;7.602;2023-02-28T11:15:25;5.30;;;4.90;;
357;SDS011;167;47.558;7.602;2023-02-28T11:17:56;5.60;;;5.00;;
357;SDS011;167;47.558;7.602;2023-02-28T11:20:23;6.10;;;5.57;;
357;SDS011;167;47.558;7.602;2023-02-28T11:22:50;5.60;;;5.23;;
357;SDS011;167;47.558;7.602;2023-02-28T11:25:21;6.43;;;5.90;;
357;SDS011;167;47.558;7.602;2023-02-28T11:27:49;5.95;;;5.43;;
357;SDS011;167;47.558;7.602;2023-02-28T11:30:35;5.67;;;5.27;;
357;SDS011;167;47.558;7.602;2023-02-28T11:33:24;6.53;;;5.80;;
357;SDS011;167;47.558;7.602;2023-02-28T11:35:48;11.40;;;6.60;;
357;SDS011;167;47.558;7.602;2023-02-28T11:38:14;5.27;;;4.90;;
357;SDS011;167;47.558;7.602;2023-02-28T11:43:44;6.97;;;6.43;;
357;SDS011;167;47.558;7.602;2023-02-28T11:46:13;6.50;;;5.97;;
357;SDS011;167;47.558;7.602;2023-02-28T11:58:27;5.90;;;5.40;;
357;SDS011;167;47.558;7.602;2023-02-28T12:00:59;6.07;;;5.23;;
357;SDS011;167;47.558;7.602;2023-02-28T12:03:28;5.27;;;4.87;;
357;SDS011;167;47.558;7.602;2023-02-28T12:08:37;6.20;;;5.70;;
357;SDS011;167;47.558;7.602;2023-02-28T12:19:07;5.63;;;5.07;;
357;SDS011;167;47.558;7.602;2023-02-28T12:21:52;6.27;;;5.87;;
357;SDS011;167;47.558;7.602;2023-02-28T12:26:48;6.30;;;5.87;;
357;SDS011;167;47.558;7.602;2023-02-28T12:31:44;5.43;;;5.10;;
357;SDS011;167;47.558;7.602;2023-02-28T12:34:13;5.10;;;4.70;;
357;SDS011;167;47.558;7.602;2023-02-28T12:36:41;5.47;;;4.97;;
357;SDS011;167;47.558;7.602;2023-02-28T12:39:14;4.10;;;3.80;;
357;SDS011;167;47.558;7.602;2023-02-28T12:41:45;4.50;;;4.20;;
357;SDS011;167;47.558;7.602;2023-02-28T12:44:17;10.95;;;4.45;;
357;SDS011;167;47.558;7.602;2023-02-28T12:46:46;4.93;;;4.53;;
357;SDS011;167;47.558;7.602;2023-02-28T12:49:17;5.25;;;4.85;;
357;SDS011;167;47.558;7.602;2023-02-28T12:51:45;5.20;;;4.77;;
357;SDS011;167;47.558;7.602;2023-02-28T12:54:23;5.17;;;4.67;;
357;SDS011;167;47.558;7.602;2023-02-28T12:56:53;5.20;;;4.70;;
357;SDS011;167;47.558;7.602;2023-02-28T12:59:27;5.23;;;4.87;;
357;SDS011;167;47.558;7.602;2023-02-28T13:02:02;6.60;;;5.00;;
357;SDS011;167;47.558;7.602;2023-02-28T13:04:36;4.77;;;4.40;;
357;SDS011;167;47.558;7.602;2023-02-28T13:07:10;5.40;;;5.00;;
357;SDS011;167;47.558;7.602;2023-02-28T13:09:38;5.87;;;5.50;;
357;SDS011;167;47.558;7.602;2023-02-28T13:12:12;8.50;;;5.70;;
357;SDS011;167;47.558;7.602;2023-02-28T13:14:38;8.65;;;4.78;;
357;SDS011;167;47.558;7.602;2023-02-28T13:22:05;5.77;;;5.27;;
357;SDS011;167;47.558;7.602;2023-02-28T13:29:31;5.53;;;5.13;;
357;SDS011;167;47.558;7.602;2023-02-28T13:34:34;5.00;;;4.60;;
357;SDS011;167;47.558;7.602;2023-02-28T13:39:46;7.23;;;6.63;;
357;SDS011;167;47.558;7.602;2023-02-28T13:47:51;5.40;;;4.90;;
357;SDS011;167;47.558;7.602;2023-02-28T13:50:21;6.20;;;5.70;;
357;SDS011;167;47.558;7.602;2023-02-28T13:52:51;5.60;;;5.20;;
357;SDS011;167;47.558;7.602;2023-02-28T14:03:31;5.80;;;5.30;;
357;SDS011;167;47.558;7.602;2023-02-28T14:08:45;8.10;;;5.60;;
357;SDS011;167;47.558;7.602;2023-02-28T14:11:23;5.40;;;5.00;;
357;SDS011;167;47.558;7.602;2023-02-28T14:13:49;6.10;;;5.60;;
357;SDS011;167;47.558;7.602;2023-02-28T14:16:16;6.63;;;6.13;;
357;SDS011;167;47.558;7.602;2023-02-28T14:18:48;6.60;;;6.03;;
357;SDS011;167;47.558;7.602;2023-02-28T14:21:23;7.13;;;6.60;;
357;SDS011;167;47.558;7.602;2023-02-28T14:26:31;8.17;;;6.00;;
357;SDS011;167;47.558;7.602;2023-02-28T14:31:48;6.63;;;6.13;;
357;SDS011;167;47.558;7.602;2023-02-28T14:37:03;6.63;;;6.03;;
357;SDS011;167;47.558;7.602;2023-02-28T14:39:30;7.03;;;6.43;;
357;SDS011;167;47.558;7.602;2023-02-28T14:41:57;6.40;;;5.93;;
357;SDS011;167;47.558;7.602;2023-02-28T14:44:30;7.30;;;6.80;;
357;SDS011;167;47.558;7.602;2023-02-28T14:46:57;7.23;;;6.53;;
357;SDS011;167;47.558;7.602;2023-02-28T14:49:27;7.80;;;7.10;;
357;SDS011;167;47.558;7.602;2023-02-28T14:54:34;6.07;;;5.57;;
357;SDS011;167;47.558;7.602;2023-02-28T14:57:00;7.93;;;7.32;;
357;SDS011;167;47.558;7.602;2023-02-28T14:59:31;6.87;;;6.27;;
357;SDS011;167;47.558;7.602;2023-02-28T15:02:16;7.60;;;6.30;;
357;SDS011;167;47.558;7.602;2023-02-28T15:04:43;7.10;;;6.40;;
357;SDS011;167;47.558;7.602;2023-02-28T15:09:35;5.90;;;5.40;;
357;SDS011;167;47.558;7.602;2023-02-28T15:12:01;6.90;;;6.33;;
357;SDS011;167;47.558;7.602;2023-02-28T15:14:27;6.73;;;6.03;;
357;SDS011;167;47.558;7.602;2023-02-28T15:16:59;7.37;;;6.70;;
357;SDS011;167;47.558;7.602;2023-02-28T15:19:34;5.83;;;5.43;;
357;SDS011;167;47.558;7.602;2023-02-28T15:22:03;7.28;;;5.13;;
357;SDS011;167;47.558;7.602;2023-02-28T15:27:00;8.00;;;7.30;;
357;SDS011;167;47.558;7.602;2023-02-28T15:29:29;6.30;;;5.80;;
357;SDS011;167;47.558;7.602;2023-02-28T15:31:56;5.40;;;5.00;;
357;SDS011;167;47.558;7.602;2023-02-28T15:37:01;7.47;;;6.87;;
357;SDS011;167;47.558;7.602;2023-02-28T15:39:28;8.00;;;7.20;;
357;SDS011;167;47.558;7.602;2023-02-28T15:42:11;7.30;;;6.47;;
357;SDS011;167;47.558;7.602;2023-02-28T15:44:37;7.00;;;6.40;;
357;SDS011;167;47.558;7.602;2023-02-28T15:47:04;6.73;;;6.23;;
357;SDS011;167;47.558;7.602;2023-02-28T15:49:51;7.67;;;7.07;;
357;SDS011;167;47.558;7.602;2023-02-28T15:52:59;6.88;;;6.28;;
357;SDS011;167;47.558;7.602;2023-02-28T15:55:10;7.27;;;6.67;;
357;SDS011;167;47.558;7.602;2023-02-28T15:57:38;6.97;;;6.37;;
357;SDS011;167;47.558;7.602;2023-02-28T16:00:05;6.27;;;5.87;;
357;SDS011;167;47.558;7.602;2023-02-28T16:02:36;7.67;;;6.97;;
357;SDS011;167;47.558;7.602;2023-02-28T16:07:28;6.97;;;6.47;;
357;SDS011;167;47.558;7.602;2023-02-28T16:09:54;7.37;;;6.77;;
357;SDS011;167;47.558;7.602;2023-02-28T16:12:21;7.00;;;6.50;;
357;SDS011;167;47.558;7.602;2023-02-28T16:14:51;6.27;;;5.77;;
357;SDS011;167;47.558;7.602;2023-02-28T16:17:22;8.27;;;7.50;;
357;SDS011;167;47.558;7.602;2023-02-28T16:19:48;7.00;;;6.50;;
357;SDS011;167;47.558;7.602;2023-02-28T16:22:14;7.65;;;7.03;;
357;SDS011;167;47.558;7.602;2023-02-28T16:24:40;7.70;;;7.10;;
357;SDS011;167;47.558;7.602;2023-02-28T16:27:06;6.77;;;6.17;;
357;SDS011;167;47.558;7.602;2023-02-28T16:29:34;7.23;;;6.67;;
357;SDS011;167;47.558;7.602;2023-02-28T16:32:00;7.00;;;6.40;;
357;SDS011;167;47.558;7.602;2023-02-28T16:34:27;10.30;;;7.17;;
357;SDS011;167;47.558;7.602;2023-02-28T16:36:53;9.10;;;8.20;;
357;SDS011;167;47.558;7.602;2023-02-28T16:39:20;9.93;;;8.93;;
357;SDS011;167;47.558;7.602;2023-02-28T16:41:46;7.80;;;7.10;;
357;SDS011;167;47.558;7.602;2023-02-28T16:44:26;7.67;;;6.97;;
357;SDS011;167;47.558;7.602;2023-02-28T16:46:53;8.00;;;7.30;;
357;SDS011;167;47.558;7.602;2023-02-28T16:49:18;8.00;;;7.30;;
357;SDS011;167;47.558;7.602;2023-02-28T16:51:45;8.27;;;7.47;;
357;SDS011;167;47.558;7.602;2023-02-28T16:54:11;7.27;;;6.77;;
357;SDS011;167;47.558;7.602;2023-02-28T16:56:38;7.87;;;7.07;;
357;SDS011;167;47.558;7.602;2023-02-28T16:59:07;6.97;;;6.33;;
357;SDS011;167;47.558;7.602;2023-02-28T17:01:33;8.20;;;7.40;;
357;SDS011;167;47.558;7.602;2023-02-28T17:03:59;8.20;;;7.30;;
357;SDS011;167;47.558;7.602;2023-02-28T17:06:27;7.40;;;6.70;;
357;SDS011;167;47.558;7.602;2023-02-28T17:08:53;7.97;;;7.27;;
357;SDS011;167;47.558;7.602;2023-02-28T17:11:19;8.63;;;7.80;;
357;SDS011;167;47.558;7.602;2023-02-28T17:13:45;8.57;;;7.77;;
357;SDS011;167;47.558;7.602;2023-02-28T17:18:54;7.57;;;6.93;;
357;SDS011;167;47.558;7.602;2023-02-28T17:21:20;8.10;;;7.40;;
357;SDS011;167;47.558;7.602;2023-02-28T17:23:46;8.40;;;7.70;;
357;SDS011;167;47.558;7.602;2023-02-28T17:26:13;7.65;;;7.00;;
357;SDS011;167;47.558;7.602;2023-02-28T17:28:39;7.80;;;7.17;;
357;SDS011;167;47.558;7.602;2023-02-28T17:31:05;7.88;;;7.28;;
357;SDS011;167;47.558;7.602;2023-02-28T17:33:31;9.07;;;8.27;;
357;SDS011;167;47.558;7.602;2023-02-28T17:35:57;7.97;;;7.17;;
357;SDS011;167;47.558;7.602;2023-02-28T17:38:23;9.40;;;8.60;;
357;SDS011;167;47.558;7.602;2023-02-28T17:40:49;9.67;;;8.87;;
357;SDS011;167;47.558;7.602;2023-02-28T17:43:15;8.10;;;7.53;;
357;SDS011;167;47.558;7.602;2023-02-28T17:45:41;8.40;;;7.57;;
357;SDS011;167;47.558;7.602;2023-02-28T17:48:09;8.40;;;7.10;;
357;SDS011;167;47.558;7.602;2023-02-28T17:50:35;8.87;;;7.97;;
357;SDS011;167;47.558;7.602;2023-02-28T17:53:01;9.53;;;8.53;;
357;SDS011;167;47.558;7.602;2023-02-28T17:55:27;8.40;;;7.60;;
357;SDS011;167;47.558;7.602;2023-02-28T17:57:53;9.73;;;8.10;;
357;SDS011;167;47.558;7.602;2023-02-28T18:00:19;9.50;;;8.70;;